Main page
METAR-TAF:

METAR-TAF

Airports :

Ramón Villeda Morales International Airport

San Pedro Sula, Honduras

latitude: 15-27N, longitude: 087-56W, elevation: 31 m

Current weather observation

The report was made 13 minutes ago, at 19:00 UTC
Wind 7 kt from the Northeast
Temperature 34°C
Humidity 41%
Pressure 1011 hPa
Visibility 10 km or more
Few clouds at a height of 3200 ft

METAR: MHLM 031900Z 05007KT 9999 FEW032 34/19 Q1011 A2986 NOSIG

Time: 13:13 (19:13 UTC)

Forecast

The report was made 3 hours and 13 minutes ago, at 16:00 UTC
Forecast valid from 03 at 18 UTC to 04 at 18 UTC
Wind 10 kt from the Northeast
Visibility 10 km or more
Few clouds at a height of 3000 ft
Becoming
from 03 at 23 UTC to 04 at 01 UTC
Wind 3 kt from variable directions

TAF: MHLM 031600Z 0318/0418 04010KT 9999 FEW030 TX35/0221Z TN21/0412Z BECMG 0323/0401 VRB03KT

Weather observations and forecasts of more than 4000 airports (METAR and TAF reports).

The available stations are represented by yellow and red dots on the map.

Hover mouse over dot to see the name of the station.

Then click to see weather observations and forecasts.

To change the map : click on the green buttons with a black cross to zoom in, on the green button with a dash to zoom out, or on the green arrows for adjacent maps.


METAR-TAF: